Time;durP1;ratioP1;P1;durP2;ratioP2;P2;SDS_P1;SDS_P2;PMS_P1;PMS_P2;Temp;Humidity;BMP_temperature;BMP_pressure;BME280_temperature;BME280_humidity;BME280_pressure;Samples;Min_cycle;Max_cycle;Signal;HPM_P1;HPM_P2
2022/03/11 00:01:42;;;;;;;;;26.75;24.75;;;;;10.04;100.00;100565.03;5118564;27;45253;-77
2022/03/11 00:04:08;;;;;;;;;23.50;23.00;;;;;11.35;100.00;100791.66;5088997;27;45252;-80
2022/03/11 00:06:33;;;;;;;;;24.75;24.00;;;;;10.72;100.00;100670.00;5095472;27;45515;-78
2022/03/11 00:08:58;;;;;;;;;29.25;25.50;;;;;11.53;100.00;100803.97;5108763;27;45549;-79
2022/03/11 00:11:24;;;;;;;;;20.75;17.75;;;;;11.53;100.00;100798.53;5107585;27;45305;-78
2022/03/11 00:13:49;;;;;;;;;24.50;24.00;;;;;11.52;100.00;100799.53;5097408;27;46153;-77
2022/03/11 00:16:15;;;;;;;;;25.75;24.00;;;;;11.00;100.00;100707.03;5108391;27;45107;-78
2022/03/11 00:18:40;;;;;;;;;23.50;22.00;;;;;11.33;100.00;100766.41;5105596;27;45363;-77
2022/03/11 00:21:08;;;;;;;;;22.50;20.50;;;;;10.59;100.00;100648.22;5105300;27;45027;-77
2022/03/11 00:23:33;;;;;;;;;20.75;19.00;;;;;11.50;100.00;100795.16;5100424;27;45510;-78
2022/03/11 00:25:58;;;;;;;;;25.50;21.75;;;;;11.23;100.00;100746.25;5099218;27;45264;-78
2022/03/11 00:28:24;;;;;;;;;23.75;21.75;;;;;10.32;100.00;100581.19;5097479;27;45361;-76
2022/03/11 00:30:49;;;;;;;;;24.00;21.00;;;;;11.01;100.00;100708.78;5086148;27;45802;-76
2022/03/11 00:33:15;;;;;;;;;20.50;18.00;;;;;11.01;100.00;100719.66;5100272;27;45577;-76
2022/03/11 00:35:40;;;;;;;;;21.75;21.75;;;;;10.70;100.00;100650.22;5100208;27;45395;-76
2022/03/11 00:38:05;;;;;;;;;20.50;18.25;;;;;10.97;100.00;100686.34;5095669;27;45125;-76
2022/03/11 00:40:31;;;;;;;;;20.75;17.50;;;;;10.24;100.00;100550.97;5085080;27;45265;-76
2022/03/11 00:42:56;;;;;;;;;28.50;23.50;;;;;11.29;100.00;100737.66;5107684;27;45534;-76
2022/03/11 00:45:22;;;;;;;;;22.50;22.50;;;;;9.74;100.00;100476.50;5107399;27;45162;-77
2022/03/11 00:47:48;;;;;;;;;21.50;18.50;;;;;11.56;100.00;100770.25;5099634;27;45182;-76
2022/03/11 00:50:13;;;;;;;;;20.25;18.75;;;;;11.27;100.00;100715.13;5094422;27;45178;-77
2022/03/11 00:52:41;;;;;;;;;23.00;19.00;;;;;11.33;100.00;100726.44;5106772;27;45244;-77
2022/03/11 00:55:07;;;;;;;;;20.00;19.25;;;;;10.96;100.00;100670.16;5095132;27;45146;-76
2022/03/11 00:57:32;;;;;;;;;22.25;22.25;;;;;11.54;100.00;100755.84;5088238;27;45135;-76
2022/03/11 00:59:57;;;;;;;;;17.75;16.50;;;;;10.21;100.00;100526.69;5102384;27;45314;-76
2022/03/11 01:02:23;;;;;;;;;20.25;18.00;;;;;10.16;100.00;100533.41;5104371;27;46429;-76
2022/03/11 01:04:49;;;;;;;;;22.25;19.00;;;;;11.31;100.00;100706.63;5108704;27;44984;-76
2022/03/11 01:07:15;;;;;;;;;20.50;20.50;;;;;11.00;100.00;100663.50;5103109;27;46120;-76
2022/03/11 01:09:40;;;;;;;;;18.00;16.00;;;;;10.93;100.00;100646.75;5085418;27;45746;-76
2022/03/11 01:12:06;;;;;;;;;24.25;23.25;;;;;11.47;100.00;100728.19;5099233;27;45567;-76
2022/03/11 01:14:31;;;;;;;;;24.50;20.50;;;;;11.47;100.00;100740.94;5099369;27;45019;-77
2022/03/11 01:16:57;;;;;;;;;21.50;21.50;;;;;11.47;100.00;100740.94;5101469;27;45608;-76
2022/03/11 01:19:23;;;;;;;;;23.00;19.75;;;;;10.60;100.00;100582.00;5094866;27;45337;-75
2022/03/11 01:21:49;;;;;;;;;21.75;16.75;;;;;11.49;100.00;100723.50;5094954;27;45472;-76
2022/03/11 01:24:14;;;;;;;;;23.00;21.75;;;;;11.50;100.00;100727.09;5098585;27;45061;-77
2022/03/11 01:26:40;;;;;;;;;20.50;20.50;;;;;11.51;100.00;100724.28;5071745;27;45408;-75
2022/03/11 01:29:05;;;;;;;;;21.00;15.50;;;;;10.81;100.00;100607.69;5099032;27;45391;-76
2022/03/11 01:31:31;;;;;;;;;22.00;18.00;;;;;11.52;100.00;100716.97;5088235;27;45584;-76
2022/03/11 01:33:56;;;;;;;;;17.75;17.50;;;;;10.66;100.00;100584.28;5094142;27;45333;-76
2022/03/11 01:36:22;;;;;;;;;19.75;18.75;;;;;11.21;100.00;100659.28;5088078;27;45020;-75
2022/03/11 01:38:47;;;;;;;;;21.75;17.25;;;;;11.52;100.00;100714.25;5100767;27;45114;-76
2022/03/11 01:41:13;;;;;;;;;21.00;18.00;;;;;11.43;100.00;100700.31;5106636;27;45781;-77
2022/03/11 01:43:57;;;;;;;;;24.75;18.00;;;;;10.89;100.00;100629.75;5106649;27;45367;-78
2022/03/11 01:46:23;;;;;;;;;23.50;22.50;;;;;11.53;100.00;100714.13;5106280;27;44989;-76
2022/03/11 01:48:49;;;;;;;;;23.50;20.75;;;;;11.37;100.00;100673.53;5098452;27;45296;-76
2022/03/11 01:51:15;;;;;;;;;23.50;22.00;;;;;10.73;100.00;100557.53;5102640;27;46193;-77
2022/03/11 01:53:41;;;;;;;;;24.00;18.50;;;;;10.18;100.00;100488.84;5110476;27;45697;-76
2022/03/11 01:56:07;;;;;;;;;20.50;18.50;;;;;11.53;100.00;100692.34;5101485;27;45420;-76
2022/03/11 01:58:33;;;;;;;;;22.25;20.00;;;;;11.34;100.00;100671.00;5107400;27;45164;-76
2022/03/11 02:00:58;;;;;;;;;24.00;20.25;;;;;10.07;100.00;100453.44;5108666;27;45639;-77
2022/03/11 02:03:24;;;;;;;;;25.50;21.25;;;;;9.89;100.00;100420.28;5101255;27;45461;-78
2022/03/11 02:05:49;;;;;;;;;17.25;17.25;;;;;10.54;100.00;100523.50;5091171;27;45873;-77
2022/03/11 02:08:15;;;;;;;;;25.75;24.25;;;;;11.47;100.00;100683.75;5106640;27;45376;-77
2022/03/11 02:10:40;;;;;;;;;24.50;20.25;;;;;11.44;100.00;100702.03;5100937;27;45639;-79
2022/03/11 02:13:06;;;;;;;;;23.00;20.00;;;;;10.48;100.00;100517.63;5089527;27;45059;-79
2022/03/11 02:15:32;;;;;;;;;18.50;18.25;;;;;10.52;100.00;100535.44;5083215;27;45548;-79
2022/03/11 02:17:57;;;;;;;;;20.50;18.00;;;;;10.67;100.00;100555.25;5096482;27;45146;-76
2022/03/11 02:20:23;;;;;;;;;17.25;17.00;;;;;10.74;100.00;100570.16;5102518;27;45417;-76
2022/03/11 02:22:51;;;;;;;;;21.25;18.75;;;;;11.35;100.00;100666.44;5093387;27;45875;-76
2022/03/11 02:25:17;;;;;;;;;24.50;21.00;;;;;11.43;100.00;100677.66;5085204;27;45518;-76
2022/03/11 02:27:42;;;;;;;;;23.00;20.75;;;;;10.50;100.00;100516.53;5098570;27;45817;-76
2022/03/11 02:30:21;;;;;;;;;18.50;18.50;;;;;10.88;100.00;100587.22;5104054;27;45482;-75
2022/03/11 02:32:47;;;;;;;;;22.25;19.00;;;;;10.84;100.00;100574.81;5103448;27;45217;-77
2022/03/11 02:35:14;;;;;;;;;25.75;24.50;;;;;11.37;100.00;100659.91;5090010;27;45083;-75
2022/03/11 02:37:40;;;;;;;;;21.25;19.25;;;;;10.83;100.00;100583.09;5089486;27;45497;-76
2022/03/11 02:40:08;;;;;;;;;18.75;16.75;;;;;10.32;100.00;100482.50;5091661;27;45979;-76
2022/03/11 02:42:34;;;;;;;;;18.33;18.33;;;;;11.42;100.00;100657.75;5109863;27;45153;-76
2022/03/11 02:45:00;;;;;;;;;22.50;18.75;;;;;11.44;100.00;100661.19;5096776;27;45452;-76
2022/03/11 02:47:26;;;;;;;;;21.50;19.75;;;;;9.70;100.00;100362.81;5107787;27;45184;-77
2022/03/11 02:49:52;;;;;;;;;25.00;20.25;;;;;11.47;100.00;100651.97;5090879;27;45534;-77
2022/03/11 02:52:17;;;;;;;;;18.00;15.50;;;;;11.24;100.00;100614.63;5117426;27;45108;-76
2022/03/11 02:54:42;;;;;;;;;21.00;19.50;;;;;11.01;100.00;100572.78;5100244;27;44980;-76
2022/03/11 02:57:08;;;;;;;;;20.00;18.00;;;;;11.22;100.00;100603.88;5096948;27;44997;-76
2022/03/11 03:02:08;;;;;;;;;16.50;16.50;;;;;10.20;100.00;100454.31;5500827;22;46175;-77
2022/03/11 03:04:34;;;;;;;;;27.00;21.25;;;;;10.29;100.00;100464.59;4986485;28;45175;-76
2022/03/11 03:06:59;;;;;;;;;24.25;22.75;;;;;11.41;100.00;100649.69;4987849;28;45419;-76
2022/03/11 03:09:24;;;;;;;;;24.00;20.00;;;;;11.39;100.00;100638.88;4957956;28;47758;-75
2022/03/11 03:11:50;;;;;;;;;19.75;16.50;;;;;11.34;100.00;100632.03;4981811;28;45343;-76
2022/03/11 03:14:15;;;;;;;;;20.75;19.00;;;;;11.30;100.00;100620.50;4984825;28;45031;-76
2022/03/11 03:16:40;;;;;;;;;18.50;17.00;;;;;10.87;100.00;100554.72;4988226;28;45409;-75
2022/03/11 03:19:06;;;;;;;;;19.75;17.00;;;;;10.92;100.00;100555.25;4985019;28;45497;-75
2022/03/11 03:21:31;;;;;;;;;20.00;18.75;;;;;11.14;100.00;100596.25;4976399;28;45609;-76
2022/03/11 03:23:56;;;;;;;;;22.50;20.00;;;;;11.12;100.00;100595.50;4978840;28;45333;-76
2022/03/11 03:26:22;;;;;;;;;19.75;19.50;;;;;10.63;100.00;100509.25;4958677;28;45117;-76
2022/03/11 03:28:47;;;;;;;;;17.75;17.75;;;;;10.42;100.00;100472.72;4989918;28;45532;-76
2022/03/11 03:31:12;;;;;;;;;19.25;16.25;;;;;11.03;100.00;100574.38;4978574;28;45333;-77
2022/03/11 03:33:38;;;;;;;;;20.75;19.50;;;;;11.23;100.00;100602.00;4983579;28;45209;-76
2022/03/11 03:36:03;;;;;;;;;20.25;17.00;;;;;10.17;100.00;100418.34;4979011;28;45136;-76
2022/03/11 03:38:29;;;;;;;;;20.50;18.00;;;;;11.02;100.00;100564.50;4990839;28;46171;-77
2022/03/11 03:40:54;;;;;;;;;22.50;20.25;;;;;11.16;100.00;100617.91;4984758;28;45163;-79
2022/03/11 03:43:19;;;;;;;;;17.50;17.50;;;;;10.95;100.00;100573.19;4991366;28;45078;-80
2022/03/11 03:45:45;;;;;;;;;17.50;14.25;;;;;10.30;100.00;100466.31;4984256;28;45147;-78
2022/03/11 03:48:10;;;;;;;;;21.75;17.00;;;;;10.32;100.00;100466.19;4969675;28;47093;-79
2022/03/11 03:50:36;;;;;;;;;16.25;14.25;;;;;11.06;100.00;100595.06;4983567;28;45495;-77
2022/03/11 03:53:01;;;;;;;;;16.75;16.75;;;;;10.98;100.00;100605.63;4965668;28;45649;-76
2022/03/11 03:55:26;;;;;;;;;22.25;17.25;;;;;10.96;100.00;100594.84;4981552;28;44912;-76
2022/03/11 03:57:52;;;;;;;;;17.00;15.00;;;;;9.91;100.00;100406.59;4985932;28;45561;-79
2022/03/11 04:00:17;;;;;;;;;19.25;16.75;;;;;11.00;100.00;100590.94;4979514;28;45355;-77
2022/03/11 04:02:47;;;;;;;;;23.75;20.50;;;;;10.98;100.00;100584.72;4981065;28;45233;-76
2022/03/11 04:05:13;;;;;;;;;21.50;16.75;;;;;10.95;100.00;100571.38;4967936;28;45026;-76
2022/03/11 04:07:40;;;;;;;;;22.75;17.75;;;;;10.93;100.00;100578.75;4983193;28;45436;-76
2022/03/11 04:10:06;;;;;;;;;17.25;16.75;;;;;9.35;100.00;100315.44;4985252;28;45512;-76
2022/03/11 04:12:32;;;;;;;;;21.25;16.25;;;;;10.33;100.00;100493.25;4986887;28;45241;-76
2022/03/11 04:14:57;;;;;;;;;18.00;16.00;;;;;10.88;100.00;100578.19;4980956;28;45164;-76
2022/03/11 04:17:23;;;;;;;;;22.50;18.00;;;;;10.55;100.00;100527.97;4980157;28;45558;-76
2022/03/11 04:19:48;;;;;;;;;18.50;15.25;;;;;10.22;100.00;100468.66;4969087;28;45486;-75
2022/03/11 04:22:13;;;;;;;;;26.25;18.50;;;;;10.85;100.00;100575.72;4988575;28;45565;-76
2022/03/11 04:24:39;;;;;;;;;16.00;14.00;;;;;10.11;100.00;100460.41;4985551;28;45262;-75
2022/03/11 04:27:04;;;;;;;;;16.00;14.75;;;;;10.70;100.00;100550.47;4980635;28;45607;-75
2022/03/11 04:29:29;;;;;;;;;17.25;16.00;;;;;10.82;100.00;100567.75;4985735;28;45169;-75
2022/03/11 04:31:55;;;;;;;;;21.75;18.25;;;;;10.65;100.00;100544.50;4984371;28;45071;-75
2022/03/11 04:34:21;;;;;;;;;13.75;13.75;;;;;10.24;100.00;100482.16;4988717;28;45185;-74
2022/03/11 04:36:46;;;;;;;;;15.00;14.50;;;;;10.68;100.00;100566.00;4979294;28;45241;-75
2022/03/11 04:39:12;;;;;;;;;18.75;16.00;;;;;10.35;100.00;100514.91;4984376;28;45383;-75
2022/03/11 04:41:37;;;;;;;;;13.75;13.75;;;;;10.59;100.00;100564.84;4988094;28;45138;-75
2022/03/11 04:44:03;;;;;;;;;17.25;14.25;;;;;9.97;100.00;100444.19;4988309;28;45178;-75
2022/03/11 04:46:29;;;;;;;;;14.50;13.75;;;;;9.56;100.00;100377.34;4983283;28;45894;-75
2022/03/11 04:48:55;;;;;;;;;17.00;16.75;;;;;10.07;100.00;100472.44;4982533;28;45190;-75
2022/03/11 04:51:22;;;;;;;;;15.25;14.25;;;;;10.70;100.00;100582.25;4958201;28;45218;-75
2022/03/11 04:53:48;;;;;;;;;18.00;16.00;;;;;10.69;100.00;100573.19;4987606;28;45362;-75
2022/03/11 04:56:14;;;;;;;;;15.25;14.25;;;;;10.67;100.00;100575.16;4981386;28;45542;-75
2022/03/11 04:58:39;;;;;;;;;15.50;14.75;;;;;10.16;100.00;100500.81;4984307;28;45221;-75
2022/03/11 05:01:05;;;;;;;;;15.00;14.00;;;;;10.59;100.00;100559.41;4973220;28;45485;-75
2022/03/11 05:03:31;;;;;;;;;15.00;15.00;;;;;10.02;100.00;100456.47;4987661;28;45184;-75
2022/03/11 05:05:56;;;;;;;;;19.50;13.75;;;;;9.97;100.00;100447.75;4986814;28;46092;-75
2022/03/11 05:08:23;;;;;;;;;14.00;14.00;;;;;10.60;100.00;100565.69;4987420;28;45252;-77
2022/03/11 05:10:48;;;;;;;;;15.25;14.75;;;;;10.58;100.00;100571.22;4984476;28;45418;-75
2022/03/11 05:13:13;;;;;;;;;18.00;15.00;;;;;10.26;100.00;100505.53;4972006;28;45535;-75
2022/03/11 05:15:39;;;;;;;;;12.00;12.00;;;;;10.56;100.00;100556.88;4971557;28;45134;-75
2022/03/11 05:18:04;;;;;;;;;17.00;14.50;;;;;10.33;100.00;100522.28;4981547;28;45848;-75
2022/03/11 05:20:30;;;;;;;;;21.00;14.25;;;;;10.54;100.00;100558.84;4983336;28;45349;-75
2022/03/11 05:22:56;;;;;;;;;11.75;10.50;;;;;10.30;100.00;100515.22;4977144;28;45312;-74
2022/03/11 05:25:21;;;;;;;;;14.50;12.50;;;;;10.20;100.00;100500.50;4973454;28;45552;-75
2022/03/11 05:27:47;;;;;;;;;15.50;10.75;;;;;10.29;100.00;100504.44;4970177;28;45034;-75
2022/03/11 05:30:12;;;;;;;;;12.50;10.25;;;;;10.50;100.00;100540.13;4985604;28;45137;-75
2022/03/11 05:32:46;;;;;;;;;12.00;12.00;;;;;10.44;100.00;100532.38;4984835;28;45007;-75
2022/03/11 05:35:13;;;;;;;;;13.75;12.00;;;;;10.00;100.00;100463.84;4986872;28;45491;-74
2022/03/11 05:37:39;;;;;;;;;13.00;13.00;;;;;10.45;100.00;100537.75;4983731;28;45359;-75
2022/03/11 05:40:05;;;;;;;;;13.75;12.50;;;;;9.91;100.00;100437.34;4978110;28;45410;-75
2022/03/11 05:42:31;;;;;;;;;14.75;12.50;;;;;10.42;100.00;100540.66;4977969;28;45446;-75
2022/03/11 05:44:56;;;;;;;;;12.00;11.75;;;;;9.42;100.00;100367.41;4973886;28;45510;-75
2022/03/11 05:47:22;;;;;;;;;16.50;13.00;;;;;10.24;100.00;100502.06;4976598;28;45486;-74
2022/03/11 05:49:47;;;;;;;;;14.00;13.00;;;;;9.64;100.00;100412.09;4972802;28;45569;-75
2022/03/11 05:52:13;;;;;;;;;13.00;13.00;;;;;10.24;100.00;100506.59;4973368;28;45394;-75
2022/03/11 05:54:38;;;;;;;;;8.75;8.75;;;;;10.34;100.00;100524.91;4974293;28;45493;-75
2022/03/11 05:57:04;;;;;;;;;13.75;11.50;;;;;9.68;100.00;100416.31;4975484;28;45558;-75
2022/03/11 05:59:29;;;;;;;;;14.00;12.00;;;;;8.74;100.00;100259.97;4978956;28;45443;-76
2022/03/11 06:01:55;;;;;;;;;13.00;13.00;;;;;10.17;100.00;100494.41;4973338;28;45840;-75
2022/03/11 06:04:21;;;;;;;;;12.25;11.75;;;;;10.33;100.00;100527.72;4973658;28;45373;-76
2022/03/11 06:06:47;;;;;;;;;13.00;11.75;;;;;9.64;100.00;100404.81;4973354;28;46197;-76
2022/03/11 06:09:12;;;;;;;;;12.00;11.00;;;;;10.30;100.00;100523.38;4987633;28;45130;-75
2022/03/11 06:11:39;;;;;;;;;13.50;13.00;;;;;10.30;100.00;100530.66;4964765;28;45202;-76
2022/03/11 06:14:04;;;;;;;;;13.00;13.00;;;;;9.22;100.00;100355.22;4978976;28;45538;-76
2022/03/11 06:16:30;;;;;;;;;13.75;12.00;;;;;9.82;100.00;100454.25;4988808;28;45214;-75
2022/03/11 06:18:55;;;;;;;;;12.25;10.50;;;;;10.22;100.00;100520.28;4993515;28;45399;-76
2022/03/11 06:21:20;;;;;;;;;11.75;10.00;;;;;10.04;100.00;100488.97;4969945;28;45685;-76
2022/03/11 06:23:46;;;;;;;;;12.50;10.00;;;;;9.79;100.00;100449.91;4969547;28;46553;-77
2022/03/11 06:26:11;;;;;;;;;10.25;10.25;;;;;10.21;100.00;100512.25;4981013;28;45488;-76
2022/03/11 06:28:36;;;;;;;;;11.75;10.75;;;;;9.49;100.00;100389.59;4975305;28;45950;-76
2022/03/11 06:31:02;;;;;;;;;14.25;13.50;;;;;8.55;100.00;100216.09;4981025;28;45560;-77
2022/03/11 06:33:27;;;;;;;;;11.75;10.75;;;;;9.96;100.00;100464.19;4965206;28;47127;-78
2022/03/11 06:35:53;;;;;;;;;12.00;12.00;;;;;9.88;100.00;100448.41;4971559;28;45634;-76
2022/03/11 06:38:18;;;;;;;;;11.50;9.00;;;;;10.29;100.00;100524.34;4972915;28;46018;-76
2022/03/11 06:40:44;;;;;;;;;10.00;10.00;;;;;9.51;100.00;100374.94;4954187;28;45494;-79
2022/03/11 06:43:09;;;;;;;;;11.75;11.00;;;;;9.77;100.00;100421.13;4972485;28;45925;-77
2022/03/11 06:45:35;;;;;;;;;11.25;10.00;;;;;9.89;100.00;100444.72;4971197;28;45421;-76
2022/03/11 06:48:00;;;;;;;;;9.50;7.00;;;;;9.96;100.00;100453.31;4963741;28;45468;-77
2022/03/11 06:50:26;;;;;;;;;6.50;6.50;;;;;9.10;100.00;100302.69;4967215;28;45533;-77
2022/03/11 06:52:53;;;;;;;;;10.00;10.00;;;;;10.20;100.00;100478.78;4978575;28;46002;-76
2022/03/11 06:55:19;;;;;;;;;13.50;10.00;;;;;9.71;100.00;100410.69;4972617;28;45516;-78
2022/03/11 06:57:45;;;;;;;;;10.00;8.25;;;;;10.01;100.00;100453.88;4959800;28;45857;-77
2022/03/11 07:00:12;;;;;;;;;12.75;11.00;;;;;10.10;100.00;100461.38;4975691;28;45513;-76
2022/03/11 07:02:39;;;;;;;;;7.50;6.75;;;;;9.74;100.00;100395.06;4970736;28;45568;-77
2022/03/11 07:05:05;;;;;;;;;13.75;10.25;;;;;10.28;100.00;100478.25;4971139;28;45527;-77
2022/03/11 07:07:33;;;;;;;;;9.00;8.25;;;;;10.44;100.00;100502.50;4969453;28;45771;-76
2022/03/11 07:09:58;;;;;;;;;9.75;8.50;;;;;10.11;100.00;100438.66;4970994;28;45976;-77
2022/03/11 07:12:24;;;;;;;;;8.75;7.50;;;;;10.46;100.00;100515.00;4972258;28;46571;-78
2022/03/11 07:14:49;;;;;;;;;10.00;7.50;;;;;10.51;100.00;100493.81;4951471;28;45894;-78
2022/03/11 07:17:14;;;;;;;;;9.25;9.25;;;;;8.77;100.00;100201.97;4960998;28;45746;-77
2022/03/11 07:19:40;;;;;;;;;9.50;7.50;;;;;8.94;100.00;100228.78;4971575;28;45538;-77
2022/03/11 07:22:06;;;;;;;;;9.50;7.00;;;;;10.57;100.00;100504.25;4972841;28;45649;-77
2022/03/11 07:24:32;;;;;;;;;8.75;8.50;;;;;9.48;100.00;100307.31;4977475;28;45454;-79
2022/03/11 07:26:58;;;;;;;;;7.00;6.75;;;;;8.72;100.00;100179.75;4968721;28;45462;-78
2022/03/11 07:29:23;;;;;;;;;7.00;5.75;;;;;10.66;100.00;100486.41;4969169;28;45671;-77
2022/03/11 07:31:49;;;;;;;;;10.25;8.75;;;;;10.30;100.00;100421.97;4968906;28;46114;-78
2022/03/11 07:34:16;;;;;;;;;6.00;5.00;;;;;10.51;100.00;100461.19;4985106;28;45172;-78
2022/03/11 07:36:42;;;;;;;;;8.75;8.75;;;;;9.45;100.00;100268.66;4975582;28;45704;-78
2022/03/11 07:39:08;;;;;;;;;9.00;6.75;;;;;9.76;100.00;100324.38;4973317;28;45461;-77
2022/03/11 07:41:35;;;;;;;;;7.25;6.25;;;;;10.72;100.00;100474.22;4975013;28;46290;-77
2022/03/11 07:44:01;;;;;;;;;7.00;7.00;;;;;10.67;100.00;100460.97;4954733;28;45589;-78
2022/03/11 07:46:27;;;;;;;;;6.00;5.50;;;;;9.79;100.00;100310.59;4973938;28;45457;-79
2022/03/11 07:48:53;;;;;;;;;7.75;5.00;;;;;10.79;100.00;100472.78;4973550;28;45931;-79
2022/03/11 07:51:19;;;;;;;;;11.33;9.33;;;;;10.80;100.00;100467.28;4974277;28;47964;-77
2022/03/11 07:53:45;;;;;;;;;10.00;8.25;;;;;9.67;100.00;100277.03;4970306;28;45504;-79
2022/03/11 07:56:13;;;;;;;;;8.25;6.00;;;;;10.82;100.00;100464.44;4969703;28;45524;-79
2022/03/11 07:58:39;;;;;;;;;7.75;7.75;;;;;10.01;100.00;100326.22;4971008;28;45682;-77
2022/03/11 08:01:09;;;;;;;;;7.50;7.50;;;;;10.12;100.00;100339.88;4970252;28;46028;-77
2022/03/11 08:03:35;;;;;;;;;8.75;7.75;;;;;10.88;100.00;100458.53;4969001;28;45604;-76
2022/03/11 08:06:00;;;;;;;;;8.25;6.25;;;;;10.88;100.00;100459.41;4970947;28;45591;-76
2022/03/11 08:08:26;;;;;;;;;11.50;7.00;;;;;10.13;100.00;100326.19;4970558;28;45384;-76
2022/03/11 08:10:54;;;;;;;;;8.67;6.67;;;;;10.55;100.00;100397.50;4970031;28;45469;-78
2022/03/11 08:13:20;;;;;;;;;9.33;8.33;;;;;9.34;100.00;100191.63;4974684;28;45545;-77
2022/03/11 08:15:45;;;;;;;;;8.25;7.25;;;;;10.05;100.00;100296.00;4977968;28;45536;-76
2022/03/11 08:18:10;;;;;;;;;6.00;6.00;;;;;9.69;100.00;100247.09;4988387;28;45291;-76
2022/03/11 08:20:36;;;;;;;;;7.00;5.00;;;;;10.37;100.00;100336.31;4983822;28;45434;-77
2022/03/11 08:23:01;;;;;;;;;6.75;6.75;;;;;11.04;100.00;100444.66;4974770;28;45403;-79
2022/03/11 08:25:27;;;;;;;;;13.50;7.00;;;;;9.47;100.00;100174.44;4972720;28;45564;-78
2022/03/11 08:27:54;;;;;;;;;5.75;5.75;;;;;10.77;100.00;100388.63;4953204;28;45530;-76
2022/03/11 08:30:20;;;;;;;;;9.00;9.00;;;;;10.42;100.00;100315.09;4971427;28;45584;-77
2022/03/11 08:32:46;;;;;;;;;7.67;7.00;;;;;11.15;100.00;100440.19;4970435;28;45473;-76
2022/03/11 08:35:11;;;;;;;;;8.67;7.00;;;;;11.20;100.00;100449.84;4970139;28;45518;-77
2022/03/11 08:37:37;;;;;;;;;8.00;8.00;;;;;11.21;100.00;100432.56;4970496;28;45523;-78
2022/03/11 08:40:06;;;;;;;;;5.67;5.67;;;;;10.49;100.00;100310.06;4969863;28;47273;-75
2022/03/11 08:42:32;;;;;;;;;10.67;5.33;;;;;9.78;100.00;100184.84;4969991;28;45871;-77
2022/03/11 08:44:59;;;;;;;;;6.33;6.33;;;;;11.16;100.00;100387.50;4970066;28;45481;-77
2022/03/11 08:47:25;;;;;;;;;5.00;5.00;;;;;10.30;100.00;100248.09;4970809;28;45604;-78
2022/03/11 08:49:50;;;;;;;;;5.33;5.33;;;;;11.38;100.00;100435.72;4969658;28;45671;-77
2022/03/11 08:52:15;;;;;;;;;4.67;4.67;;;;;10.25;100.00;100226.69;4969141;28;45492;-76
2022/03/11 08:54:41;;;;;;;;;6.33;5.33;;;;;10.14;100.00;100213.88;4970383;28;45490;-77
2022/03/11 08:57:06;;;;;;;;;4.33;4.33;;;;;11.13;100.00;100365.97;4971758;28;45475;-77
2022/03/11 08:59:32;;;;;;;;;3.67;3.00;;;;;11.36;100.00;100374.25;4969963;28;45612;-78
2022/03/11 09:01:57;;;;;;;;;7.67;5.00;;;;;11.27;100.00;100367.66;4956853;28;46102;-78
2022/03/11 09:04:22;;;;;;;;;4.67;4.67;;;;;10.50;100.00;100233.00;4969650;28;45974;-77
2022/03/11 09:06:48;;;;;;;;;5.00;5.00;;;;;11.60;100.00;100429.50;4969434;28;45539;-78
2022/03/11 09:09:13;;;;;;;;;7.00;4.00;;;;;11.29;100.00;100362.06;4971589;28;46948;-78
2022/03/11 09:11:39;;;;;;;;;1.00;1.00;;;;;11.28;100.00;100344.88;4969658;28;45346;-77
2022/03/11 09:14:04;;;;;;;;;5.33;5.00;;;;;11.37;100.00;100341.47;4969957;28;45878;-78
2022/03/11 09:16:31;;;;;;;;;4.67;4.67;;;;;11.79;100.00;100395.44;4969044;28;45513;-78
2022/03/11 09:18:57;;;;;;;;;7.00;5.00;;;;;11.84;100.00;100393.25;4969860;28;45693;-78
2022/03/11 09:21:22;;;;;;;;;4.00;4.00;;;;;11.88;100.00;100394.75;4971443;28;45530;-76
2022/03/11 09:23:48;;;;;;;;;5.00;5.00;;;;;11.11;100.00;100266.41;4969153;28;45403;-79
2022/03/11 09:26:14;;;;;;;;;6.00;5.00;;;;;11.81;100.00;100368.94;4978358;28;45447;-77
2022/03/11 09:28:39;;;;;;;;;4.00;4.00;;;;;11.72;100.00;100348.75;4969538;28;45836;-78
2022/03/11 09:31:08;;;;;;;;;6.67;5.00;;;;;11.23;100.00;100246.41;4969642;28;45541;-77
2022/03/11 09:33:36;;;;;;;;;4.33;3.67;;;;;12.05;100.00;100377.94;4969372;28;45461;-78
2022/03/11 09:36:02;;;;;;;;;5.00;4.00;;;;;12.09;100.00;100384.00;4969748;28;45391;-77
2022/03/11 09:38:27;;;;;;;;;4.00;4.00;;;;;12.03;100.00;100365.44;4966367;28;48056;-76
2022/03/11 09:40:54;;;;;;;;;3.00;3.00;;;;;10.79;100.00;100166.38;4965519;28;45501;-77
2022/03/11 09:43:19;;;;;;;;;4.00;3.00;;;;;10.34;100.00;100079.28;4985560;28;45359;-77
2022/03/11 09:45:45;;;;;;;;;3.00;3.00;;;;;12.30;100.00;100395.06;4986722;28;46336;-76
2022/03/11 09:48:11;;;;;;;;;6.67;5.00;;;;;12.35;100.00;100376.47;4978938;28;45436;-78
2022/03/11 09:50:37;;;;;;;;;4.00;4.00;;;;;12.42;100.00;100381.34;4968370;28;45426;-76
2022/03/11 09:53:03;;;;;;;;;4.00;4.00;;;;;12.49;100.00;100376.25;4982772;28;44808;-79
2022/03/11 09:55:28;;;;;;;;;6.33;5.00;;;;;12.50;100.00;100366.19;4974229;28;45418;-77
2022/03/11 09:57:55;;;;;;;;;4.67;4.67;;;;;12.59;100.00;100370.91;4969955;28;45603;-78
2022/03/11 10:00:20;;;;;;;;;3.67;3.67;;;;;12.62;100.00;100355.16;4972352;28;45571;-76
2022/03/11 10:02:46;;;;;;;;;6.00;4.67;;;;;12.34;100.00;100302.00;4969045;28;45814;-76
2022/03/11 10:05:13;;;;;;;;;2.67;2.33;;;;;12.08;100.00;100249.63;4969349;28;45492;-77
2022/03/11 10:07:38;;;;;;;;;6.00;5.00;;;;;12.80;100.00;100351.91;4969158;28;45998;-76
2022/03/11 10:10:16;;;;;;;;;5.00;4.00;;;;;12.11;100.00;100227.56;4968663;28;45698;-76
2022/03/11 10:12:46;;;;;;;;;5.67;4.67;;;;;12.33;100.00;100275.75;4970797;28;45539;-77
2022/03/11 10:15:13;;;;;;;;;3.33;2.00;;;;;12.78;100.00;100281.13;4972253;28;45616;-79
2022/03/11 10:17:43;;;;;;;;;4.00;4.00;;;;;12.90;100.00;100298.31;4971818;28;45481;-77
2022/03/11 10:20:12;;;;;;;;;2.00;2.00;;;;;12.54;100.00;100256.75;4972407;28;45335;-79
2022/03/11 10:22:39;;;;;;;;;4.00;3.00;;;;;12.86;100.00;100338.63;4972542;28;45560;-76
2022/03/11 10:25:19;;;;;;;;;4.00;3.00;;;;;12.84;100.00;100337.03;4972082;28;45497;-76
2022/03/11 10:27:56;;;;;;;;;3.00;3.00;;;;;12.83;100.00;100327.97;4972348;28;46478;-76
2022/03/11 10:30:23;;;;;;;;;2.00;2.00;;;;;12.83;100.00;100333.44;4955457;28;45920;-78
2022/03/11 10:32:56;;;;;;;;;3.67;3.67;;;;;12.70;100.00;100308.16;4972883;28;45687;-76
2022/03/11 10:35:43;;;;;;;;;6.00;4.67;;;;;12.75;100.00;100322.28;4964542;28;45416;-76
2022/03/11 10:38:12;;;;;;;;;4.67;4.67;;;;;12.91;100.00;100338.22;4971587;28;45719;-80
2022/03/11 10:40:57;;;;;;;;;4.00;4.00;;;;;12.74;100.00;100285.09;4971499;28;45499;-76
2022/03/11 10:43:26;;;;;;;;;4.00;4.00;;;;;11.37;100.00;100063.84;4972107;28;45463;-79
2022/03/11 10:46:06;;;;;;;;;4.67;4.33;;;;;13.03;100.00;100355.44;4953924;28;45805;-77
2022/03/11 10:48:41;;;;;;;;;5.00;4.33;;;;;13.06;100.00;100366.97;4972215;28;46092;-77
2022/03/11 10:51:11;;;;;;;;;4.33;3.00;;;;;13.08;100.00;100356.81;4971689;28;45504;-76
2022/03/11 10:53:38;;;;;;;;;4.00;4.00;;;;;12.56;100.00;100259.34;4955032;28;45497;-80
2022/03/11 10:56:06;;;;;;;;;4.67;4.67;;;;;12.71;100.00;100255.31;4971300;28;45427;-78
2022/03/11 10:58:31;;;;;;;;;6.67;4.67;;;;;12.91;100.00;100289.97;4971124;28;46400;-78
2022/03/11 11:00:56;;;;;;;;;4.00;4.00;;;;;12.96;100.00;100312.28;4953889;28;45653;-76
2022/03/11 11:03:22;;;;;;;;;5.33;5.00;;;;;12.08;100.00;100170.63;4971769;28;45524;-78
2022/03/11 11:05:48;;;;;;;;;5.67;5.67;;;;;12.88;100.00;100339.38;4971511;28;45359;-76
2022/03/11 11:08:13;;;;;;;;;6.33;6.33;;;;;12.55;100.00;100287.59;4971649;28;45545;-77